Time;durP1;ratioP1;P1;durP2;ratioP2;P2;SDS_P1;SDS_P2;PMS_P1;PMS_P2;Temp;Humidity;BMP_temperature;BMP_pressure;BME280_temperature;BME280_humidity;BME280_pressure;Samples;Min_cycle;Max_cycle;Signal;HPM_P1;HPM_P2
2023/09/17 00:02:03;;;;;;;2.53;1.93;;;20.70;99.90;;;;;;5034213;28;20442;-78
2023/09/17 00:04:30;;;;;;;2.77;2.30;;;20.70;99.90;;;;;;5034080;28;20446;-78
2023/09/17 00:06:56;;;;;;;2.50;2.30;;;20.70;99.90;;;;;;5034080;28;20489;-78
2023/09/17 00:09:23;;;;;;;2.47;1.90;;;20.50;99.90;;;;;;5034016;28;20442;-78
2023/09/17 00:11:50;;;;;;;3.17;2.53;;;20.60;99.90;;;;;;5033948;28;20446;-78
2023/09/17 00:14:18;;;;;;;4.83;2.10;;;20.60;99.90;;;;;;5033908;28;20453;-78
2023/09/17 00:16:46;;;;;;;2.30;1.83;;;20.50;99.90;;;;;;5034052;28;20466;-78
2023/09/17 00:19:13;;;;;;;2.97;2.47;;;20.50;99.90;;;;;;5033914;28;20458;-78
2023/09/17 00:21:40;;;;;;;2.37;1.93;;;20.50;99.90;;;;;;5033496;28;20936;-78
2023/09/17 00:24:07;;;;;;;2.80;2.20;;;20.50;99.90;;;;;;5033466;28;20453;-78
2023/09/17 00:26:34;;;;;;;3.07;2.13;;;20.50;99.90;;;;;;5033361;28;20857;-78
2023/09/17 00:29:01;;;;;;;3.03;2.10;;;20.50;99.90;;;;;;5032915;28;20438;-78
2023/09/17 00:31:29;;;;;;;1.97;1.77;;;20.50;99.90;;;;;;5033757;28;20449;-78
2023/09/17 00:33:56;;;;;;;2.40;2.20;;;20.40;99.90;;;;;;5033597;28;20445;-78
2023/09/17 00:36:24;;;;;;;2.80;2.10;;;20.40;99.90;;;;;;5033319;28;20470;-78
2023/09/17 00:38:51;;;;;;;1.97;1.80;;;20.40;99.90;;;;;;5033828;28;20446;-78
2023/09/17 00:41:17;;;;;;;2.40;2.20;;;20.30;99.90;;;;;;5033555;28;20454;-78
2023/09/17 00:43:44;;;;;;;2.30;1.63;;;20.30;99.90;;;;;;5033269;28;20449;-78
2023/09/17 00:46:13;;;;;;;4.97;2.17;;;20.20;99.90;;;;;;5033475;28;20462;-78
2023/09/17 00:48:41;;;;;;;2.80;2.37;;;20.30;99.90;;;;;;5033374;28;20482;-78
2023/09/17 00:51:08;;;;;;;1.93;1.70;;;20.10;99.90;;;;;;5033375;28;20442;-78
2023/09/17 00:53:35;;;;;;;2.53;1.97;;;20.10;99.90;;;;;;5033345;28;20438;-78
2023/09/17 00:56:03;;;;;;;2.50;2.30;;;20.10;99.90;;;;;;5033296;28;20561;-78
2023/09/17 00:58:31;;;;;;;2.03;1.87;;;20.00;99.90;;;;;;5033322;28;20444;-78
2023/09/17 01:00:59;;;;;;;4.60;2.60;;;20.10;99.90;;;;;;5033241;28;20485;-78
2023/09/17 01:03:26;;;;;;;3.53;3.03;;;20.00;99.90;;;;;;5032950;28;20916;-78
2023/09/17 01:05:55;;;;;;;2.50;2.30;;;20.10;99.90;;;;;;5033582;28;20474;-78
2023/09/17 01:08:22;;;;;;;2.73;2.27;;;19.90;99.90;;;;;;5033191;28;20473;-78
2023/09/17 01:10:50;;;;;;;2.43;1.80;;;19.90;99.90;;;;;;5032897;28;20462;-78
2023/09/17 01:13:17;;;;;;;2.80;2.20;;;19.90;99.90;;;;;;5032833;28;20450;-78
2023/09/17 01:15:44;;;;;;;3.07;2.40;;;19.90;99.90;;;;;;5033106;28;20473;-79
2023/09/17 01:18:11;;;;;;;3.60;1.80;;;20.00;99.90;;;;;;5032877;28;20446;-78
2023/09/17 01:20:45;;;;;;;2.30;2.13;;;19.90;99.90;;;;;;5032907;28;20434;-78
2023/09/17 01:23:26;;;;;;;4.63;2.50;;;19.90;99.90;;;;;;5033142;28;20485;-78
2023/09/17 01:25:57;;;;;;;6.27;2.63;;;19.90;99.90;;;;;;5032814;28;20524;-78
2023/09/17 01:28:25;;;;;;;2.37;1.87;;;19.90;99.90;;;;;;5032970;28;20470;-79
2023/09/17 01:30:52;;;;;;;4.67;2.50;;;19.90;99.90;;;;;;5032738;28;20943;-78
2023/09/17 01:33:18;;;;;;;3.57;2.47;;;19.90;99.90;;;;;;5032992;28;20446;-79
2023/09/17 01:35:54;;;;;;;4.27;2.57;;;19.80;99.90;;;;;;5032814;28;20454;-78
2023/09/17 01:38:23;;;;;;;6.80;2.70;;;19.80;99.90;;;;;;5032645;28;20433;-78
2023/09/17 01:40:51;;;;;;;2.50;2.30;;;19.90;99.90;;;;;;5036713;28;20442;-78
2023/09/17 01:43:19;;;;;;;2.30;1.80;;;19.80;99.90;;;;;;5036459;28;20951;-78
2023/09/17 01:45:47;;;;;;;2.13;2.00;;;19.80;99.90;;;;;;5036880;28;20481;-78
2023/09/17 01:48:16;;;;;;;5.63;2.60;;;19.90;99.90;;;;;;5036590;28;20485;-78
2023/09/17 01:50:45;;;;;;;3.27;2.57;;;19.70;99.90;;;;;;5036636;28;20438;-78
2023/09/17 01:53:12;;;;;;;5.27;2.50;;;19.80;99.90;;;;;;5036604;28;20496;-78
2023/09/17 01:55:41;;;;;;;5.40;3.73;;;19.90;99.90;;;;;;5036446;28;20473;-78
2023/09/17 01:58:09;;;;;;;6.27;2.47;;;19.80;99.90;;;;;;5036767;28;20438;-78
2023/09/17 02:00:37;;;;;;;4.60;2.43;;;19.80;99.90;;;;;;5036374;28;20449;-78
2023/09/17 02:03:08;;;;;;;4.10;2.50;;;19.80;99.90;;;;;;5036399;28;20853;-78
2023/09/17 02:05:35;;;;;;;3.17;2.37;;;19.70;99.90;;;;;;5036572;28;20856;-78
2023/09/17 02:08:02;;;;;;;6.40;2.03;;;19.70;99.90;;;;;;5036117;28;20504;-78
2023/09/17 02:10:29;;;;;;;2.00;1.73;;;19.70;99.90;;;;;;5036271;28;20438;-78
2023/09/17 02:12:55;;;;;;;2.20;2.00;;;19.70;99.90;;;;;;5036214;28;20446;-78
2023/09/17 02:15:22;;;;;;;2.60;2.40;;;19.60;99.90;;;;;;5036138;28;20473;-78
2023/09/17 02:17:51;;;;;;;3.50;2.37;;;19.50;99.90;;;;;;5036118;28;20450;-78
2023/09/17 02:20:20;;;;;;;4.13;2.50;;;19.60;99.90;;;;;;5036103;28;20447;-78
2023/09/17 02:22:46;;;;;;;2.40;2.13;;;19.60;99.90;;;;;;5036051;28;20478;-78
2023/09/17 02:25:13;;;;;;;2.90;1.93;;;19.70;99.90;;;;;;5035643;28;20838;-79
2023/09/17 02:27:40;;;;;;;1.93;1.77;;;19.60;99.90;;;;;;5035460;28;20861;-79
2023/09/17 02:30:08;;;;;;;3.53;2.40;;;19.60;99.90;;;;;;5035943;28;20435;-79
2023/09/17 02:32:37;;;;;;;3.80;3.13;;;19.60;99.90;;;;;;5035909;28;20445;-78
2023/09/17 02:35:05;;;;;;;4.23;2.60;;;19.50;99.90;;;;;;5035783;28;20474;-78
2023/09/17 02:37:34;;;;;;;2.17;1.97;;;19.50;99.90;;;;;;5035825;28;20455;-78
2023/09/17 02:40:02;;;;;;;3.13;2.30;;;19.50;99.90;;;;;;5035495;28;20449;-78
2023/09/17 02:42:30;;;;;;;2.37;2.20;;;19.40;99.90;;;;;;5036070;28;20450;-78
2023/09/17 02:44:56;;;;;;;2.80;1.97;;;19.40;99.90;;;;;;5035582;28;20455;-79
2023/09/17 02:47:23;;;;;;;3.10;2.90;;;19.40;99.90;;;;;;5035219;28;20447;-78
2023/09/17 02:49:50;;;;;;;2.70;2.30;;;19.40;99.90;;;;;;5035016;28;20457;-78
2023/09/17 02:52:17;;;;;;;2.30;2.10;;;19.40;99.90;;;;;;5034712;28;20446;-78
2023/09/17 02:54:45;;;;;;;3.50;2.73;;;19.30;99.90;;;;;;5035123;28;20957;-78
2023/09/17 02:57:12;;;;;;;3.27;2.77;;;19.50;99.90;;;;;;5035405;28;20455;-78
2023/09/17 02:59:39;;;;;;;4.30;2.77;;;19.30;99.90;;;;;;5035353;28;20446;-78
2023/09/17 03:02:06;;;;;;;2.70;2.50;;;19.20;99.90;;;;;;5034996;28;20965;-78
2023/09/17 03:04:33;;;;;;;4.00;2.20;;;19.30;99.90;;;;;;5035052;28;20438;-79
2023/09/17 03:07:00;;;;;;;3.73;2.37;;;19.20;99.90;;;;;;5034860;28;20481;-78
2023/09/17 03:09:27;;;;;;;2.77;2.57;;;19.20;99.90;;;;;;5035100;28;20483;-78
2023/09/17 03:11:55;;;;;;;3.20;2.90;;;19.10;99.90;;;;;;5034804;28;20975;-78
2023/09/17 03:14:22;;;;;;;3.07;2.77;;;19.20;99.90;;;;;;5035041;28;20447;-78
2023/09/17 03:16:49;;;;;;;2.33;2.13;;;19.20;99.90;;;;;;5034941;28;20490;-78
2023/09/17 03:19:15;;;;;;;3.93;2.50;;;19.10;99.90;;;;;;5034724;28;20443;-78
2023/09/17 03:21:42;;;;;;;4.17;2.70;;;19.80;99.90;;;;;;5034914;28;20468;-78
2023/09/17 03:24:09;;;;;;;2.77;2.30;;;19.80;99.90;;;;;;5034877;28;20465;-79
2023/09/17 03:26:37;;;;;;;3.33;2.67;;;19.00;99.90;;;;;;5034442;28;20482;-79
2023/09/17 03:29:07;;;;;;;4.03;3.63;;;19.00;99.90;;;;;;5034709;28;20491;-78
2023/09/17 03:31:34;;;;;;;3.83;3.07;;;19.00;99.90;;;;;;5034807;28;20557;-78
2023/09/17 03:34:00;;;;;;;4.80;2.60;;;18.90;99.90;;;;;;5034471;28;20785;-79
2023/09/17 03:36:27;;;;;;;4.03;2.97;;;18.90;99.90;;;;;;5034430;28;20489;-78
2023/09/17 03:38:54;;;;;;;4.60;2.77;;;18.90;99.90;;;;;;5034295;28;20940;-79
2023/09/17 03:41:21;;;;;;;2.97;2.47;;;19.00;99.90;;;;;;5034246;28;20442;-79
2023/09/17 03:43:48;;;;;;;4.10;2.90;;;19.00;99.90;;;;;;5034212;28;20461;-78
2023/09/17 03:46:16;;;;;;;2.80;2.50;;;19.00;99.90;;;;;;5034097;28;20465;-78
2023/09/17 03:48:43;;;;;;;3.30;2.60;;;19.00;99.90;;;;;;5034033;28;20485;-78
2023/09/17 03:51:10;;;;;;;3.03;2.07;;;19.00;99.90;;;;;;5034373;28;20446;-78
2023/09/17 03:53:37;;;;;;;2.27;2.17;;;19.00;99.90;;;;;;5034246;28;20450;-79
2023/09/17 03:56:04;;;;;;;3.53;3.23;;;19.00;99.90;;;;;;5033895;28;20984;-78
2023/09/17 03:58:31;;;;;;;3.23;2.93;;;19.00;99.90;;;;;;5034231;28;20442;-78
2023/09/17 04:00:58;;;;;;;3.33;2.83;;;18.90;99.90;;;;;;5033947;28;20832;-78
2023/09/17 04:03:26;;;;;;;3.20;2.90;;;19.20;99.90;;;;;;5033872;28;20449;-79
2023/09/17 04:05:53;;;;;;;2.90;2.50;;;19.00;99.90;;;;;;5034048;28;20474;-78
2023/09/17 04:08:20;;;;;;;4.37;3.60;;;19.00;99.90;;;;;;5034042;28;20848;-78
2023/09/17 04:10:49;;;;;;;3.70;2.80;;;19.00;99.90;;;;;;5034028;28;20453;-78
2023/09/17 04:13:16;;;;;;;3.33;2.37;;;19.00;99.90;;;;;;5034146;28;20442;-78
2023/09/17 04:15:42;;;;;;;4.93;2.70;;;18.90;99.90;;;;;;5033831;28;20473;-79
2023/09/17 04:18:10;;;;;;;6.00;3.43;;;19.00;99.90;;;;;;5033643;28;20439;-79
2023/09/17 04:20:38;;;;;;;4.07;2.97;;;19.00;99.90;;;;;;5033877;28;20451;-78
2023/09/17 04:23:06;;;;;;;5.83;2.93;;;18.90;99.90;;;;;;5033803;28;20446;-79
2023/09/17 04:25:33;;;;;;;3.53;3.23;;;18.90;99.90;;;;;;5033247;28;21006;-79
2023/09/17 04:28:00;;;;;;;2.30;2.10;;;18.90;99.90;;;;;;5033373;28;20466;-79
2023/09/17 04:30:28;;;;;;;3.50;2.83;;;18.90;99.90;;;;;;5033384;28;20939;-79
2023/09/17 04:32:55;;;;;;;4.00;2.90;;;18.80;99.90;;;;;;5033502;28;20439;-78
2023/09/17 04:35:22;;;;;;;3.97;2.90;;;18.70;99.90;;;;;;5033315;28;20978;-79
2023/09/17 04:37:51;;;;;;;6.13;3.00;;;18.70;99.90;;;;;;5033561;28;20819;-78
2023/09/17 04:40:18;;;;;;;5.10;2.70;;;18.60;99.90;;;;;;5033582;28;20861;-79
2023/09/17 04:42:45;;;;;;;5.30;3.40;;;18.70;99.90;;;;;;5033516;28;20871;-79
2023/09/17 04:45:13;;;;;;;2.83;2.50;;;18.70;99.90;;;;;;5033142;28;20458;-78
2023/09/17 04:47:41;;;;;;;3.03;2.70;;;18.70;99.90;;;;;;5033131;28;21018;-79
2023/09/17 04:50:09;;;;;;;3.80;2.30;;;18.70;99.90;;;;;;5033015;28;20486;-79
2023/09/17 04:52:36;;;;;;;3.20;2.27;;;18.70;99.90;;;;;;5033088;28;20944;-78
2023/09/17 04:55:05;;;;;;;3.50;2.73;;;18.60;99.90;;;;;;5033000;28;20970;-79
2023/09/17 04:57:32;;;;;;;4.30;2.90;;;18.70;99.90;;;;;;5033289;28;20450;-78
2023/09/17 05:00:01;;;;;;;3.60;2.90;;;18.70;99.90;;;;;;5033263;28;20443;-79
2023/09/17 05:02:28;;;;;;;4.30;2.53;;;18.90;99.90;;;;;;5032993;28;20999;-78
2023/09/17 05:04:54;;;;;;;5.63;3.30;;;18.80;99.90;;;;;;5032838;28;20454;-79
2023/09/17 05:07:21;;;;;;;2.73;2.50;;;18.90;99.90;;;;;;5032901;28;20950;-79
2023/09/17 05:09:48;;;;;;;9.00;3.20;;;18.80;99.90;;;;;;5033170;28;20483;-79
2023/09/17 05:12:16;;;;;;;4.03;2.60;;;18.90;99.90;;;;;;5033168;28;20453;-79
2023/09/17 05:14:43;;;;;;;5.20;2.87;;;18.80;99.90;;;;;;5035029;28;20435;-79
2023/09/17 05:17:10;;;;;;;7.10;3.90;;;18.80;99.90;;;;;;5037259;28;20442;-79
2023/09/17 05:19:36;;;;;;;6.43;3.00;;;18.80;99.90;;;;;;5037261;28;20786;-79
2023/09/17 05:22:03;;;;;;;2.03;1.53;;;18.80;99.90;;;;;;5037195;28;20457;-79
2023/09/17 05:24:30;;;;;;;4.77;3.10;;;18.80;99.90;;;;;;5036848;28;20445;-79
2023/09/17 05:26:57;;;;;;;2.97;2.60;;;19.00;99.90;;;;;;5036641;28;20485;-79
2023/09/17 05:29:25;;;;;;;3.23;2.10;;;18.90;99.90;;;;;;5036725;28;20824;-79
2023/09/17 05:31:52;;;;;;;2.97;2.20;;;18.90;99.90;;;;;;5036952;28;20446;-79
2023/09/17 05:34:19;;;;;;;3.20;2.27;;;19.00;99.90;;;;;;5036637;28;20956;-79
2023/09/17 05:36:46;;;;;;;2.30;1.70;;;19.10;99.90;;;;;;5036536;28;20455;-78
2023/09/17 05:39:13;;;;;;;3.23;2.20;;;19.10;99.90;;;;;;5036606;28;20821;-79
2023/09/17 05:41:39;;;;;;;3.00;1.90;;;19.20;99.90;;;;;;5036498;28;20960;-78
2023/09/17 05:44:06;;;;;;;4.53;2.67;;;19.10;99.90;;;;;;5036779;28;20439;-79
2023/09/17 05:46:35;;;;;;;2.70;2.07;;;19.20;99.90;;;;;;5036683;28;20462;-79
2023/09/17 05:49:01;;;;;;;4.10;2.33;;;19.30;99.90;;;;;;5036287;28;20481;-79
2023/09/17 05:51:28;;;;;;;5.40;2.70;;;19.30;99.90;;;;;;5036391;28;20442;-79
2023/09/17 05:53:55;;;;;;;2.20;2.00;;;19.30;99.90;;;;;;5036269;28;20864;-79
2023/09/17 05:56:22;;;;;;;5.00;2.63;;;19.20;99.90;;;;;;5036239;28;20458;-79
2023/09/17 05:58:48;;;;;;;2.80;2.57;;;19.20;99.90;;;;;;5036466;28;20442;-79
2023/09/17 06:01:15;;;;;;;2.30;2.10;;;19.30;99.90;;;;;;5036481;28;20442;-79
2023/09/17 06:03:44;;;;;;;2.57;2.37;;;19.40;99.90;;;;;;5036467;28;20532;-78
2023/09/17 06:06:11;;;;;;;2.80;2.60;;;19.40;99.90;;;;;;5036316;28;20462;-79
2023/09/17 06:08:37;;;;;;;3.40;2.80;;;19.40;99.90;;;;;;5036267;28;20482;-79
2023/09/17 06:11:04;;;;;;;5.23;2.53;;;19.40;99.90;;;;;;5036254;28;20443;-79
2023/09/17 06:13:31;;;;;;;3.53;2.63;;;19.80;99.90;;;;;;5036248;28;20443;-79
2023/09/17 06:15:58;;;;;;;2.43;2.17;;;19.50;99.90;;;;;;5036198;28;20462;-78
2023/09/17 06:18:25;;;;;;;2.03;1.80;;;19.60;99.90;;;;;;5035835;28;20469;-78
2023/09/17 06:20:54;;;;;;;3.43;2.23;;;19.70;99.90;;;;;;5036066;28;20443;-79
2023/09/17 06:23:20;;;;;;;5.87;2.30;;;19.70;99.90;;;;;;5035794;28;20434;-78
2023/09/17 06:25:47;;;;;;;2.10;1.83;;;19.70;99.90;;;;;;5035711;28;20494;-78
2023/09/17 06:28:14;;;;;;;3.07;2.47;;;19.70;99.90;;;;;;5035689;28;20422;-78
2023/09/17 06:30:40;;;;;;;2.53;2.13;;;19.80;99.90;;;;;;5035736;28;20482;-79
2023/09/17 06:33:08;;;;;;;6.13;2.07;;;19.90;99.90;;;;;;5035603;28;21026;-79
2023/09/17 06:35:35;;;;;;;2.20;2.00;;;19.80;99.90;;;;;;5035487;28;20470;-79
2023/09/17 06:38:04;;;;;;;3.13;2.03;;;19.90;99.90;;;;;;5035534;28;20441;-79
2023/09/17 06:40:30;;;;;;;1.83;1.50;;;19.80;99.90;;;;;;5035506;28;20438;-79
2023/09/17 06:42:57;;;;;;;3.80;1.97;;;19.80;99.90;;;;;;5035765;28;20442;-79
2023/09/17 06:45:24;;;;;;;2.03;1.83;;;19.80;99.90;;;;;;5035475;28;20471;-79
2023/09/17 06:47:51;;;;;;;2.10;1.70;;;19.80;99.90;;;;;;5035325;28;20430;-79
2023/09/17 06:50:17;;;;;;;3.80;1.73;;;19.80;99.90;;;;;;5035503;28;20492;-79
2023/09/17 06:52:44;;;;;;;3.03;1.67;;;20.00;99.90;;;;;;5035259;28;20434;-79
2023/09/17 06:55:12;;;;;;;2.93;1.60;;;19.80;99.90;;;;;;5035107;28;20850;-79
2023/09/17 06:57:39;;;;;;;1.50;1.40;;;20.00;99.90;;;;;;5035389;28;20442;-78
2023/09/17 07:00:07;;;;;;;1.57;1.47;;;20.00;99.90;;;;;;5035711;28;20454;-79
2023/09/17 07:02:34;;;;;;;2.33;1.90;;;20.10;99.90;;;;;;5035866;28;20457;-79
2023/09/17 07:05:03;;;;;;;2.20;1.93;;;20.10;99.90;;;;;;5035208;28;20446;-79
2023/09/17 07:07:30;;;;;;;2.00;1.77;;;20.10;99.90;;;;;;5035285;28;20501;-78
2023/09/17 07:09:57;;;;;;;3.87;1.83;;;20.10;99.90;;;;;;5035152;28;20847;-79
2023/09/17 07:12:25;;;;;;;2.70;1.67;;;20.10;99.90;;;;;;5035138;28;20442;-79
2023/09/17 07:14:51;;;;;;;1.87;1.70;;;20.10;99.90;;;;;;5035096;28;20453;-78
2023/09/17 07:17:18;;;;;;;2.30;2.10;;;20.10;99.90;;;;;;5035625;28;20443;-79
2023/09/17 07:19:45;;;;;;;2.83;1.87;;;20.10;99.90;;;;;;5034897;28;20446;-78
2023/09/17 07:22:14;;;;;;;2.10;1.40;;;20.10;99.90;;;;;;5035168;28;20450;-79
2023/09/17 07:24:42;;;;;;;6.93;2.30;;;20.20;99.90;;;;;;5034594;28;20815;-78
2023/09/17 07:27:08;;;;;;;3.20;1.53;;;20.30;99.90;;;;;;5034292;28;20484;-79
2023/09/17 07:29:37;;;;;;;1.63;1.53;;;20.40;99.90;;;;;;5034746;28;20481;-79
2023/09/17 07:32:04;;;;;;;4.23;1.80;;;20.40;99.90;;;;;;5034471;28;20454;-79
2023/09/17 07:34:31;;;;;;;1.70;1.13;;;20.50;99.90;;;;;;5034394;28;20970;-79
2023/09/17 07:36:59;;;;;;;1.17;1.13;;;20.70;99.90;;;;;;5034128;28;20537;-79
2023/09/17 07:39:26;;;;;;;1.87;1.77;;;20.80;99.90;;;;;;5034983;28;20492;-79
2023/09/17 07:41:53;;;;;;;2.00;1.60;;;21.30;99.90;;;;;;5034548;28;20530;-79
2023/09/17 07:44:20;;;;;;;2.47;1.50;;;21.00;99.90;;;;;;5035398;28;20435;-79
2023/09/17 07:46:48;;;;;;;2.80;1.70;;;21.10;99.90;;;;;;5033963;28;20505;-79
2023/09/17 07:49:15;;;;;;;2.10;1.73;;;21.30;99.90;;;;;;5034089;28;21018;-79
2023/09/17 07:51:42;;;;;;;1.33;1.23;;;21.40;99.90;;;;;;5034417;28;20450;-79
2023/09/17 07:54:08;;;;;;;2.20;1.10;;;21.60;99.90;;;;;;5034395;28;20450;-79
2023/09/17 07:56:35;;;;;;;1.53;1.37;;;21.70;99.90;;;;;;5034275;28;20458;-79
2023/09/17 07:59:03;;;;;;;1.73;1.60;;;22.00;99.90;;;;;;5034030;28;20434;-79
2023/09/17 08:01:30;;;;;;;1.00;1.00;;;22.30;99.90;;;;;;5034239;28;20450;-79
2023/09/17 08:03:58;;;;;;;3.70;1.43;;;22.50;99.90;;;;;;5034887;28;20507;-79
2023/09/17 08:06:25;;;;;;;2.30;1.23;;;22.70;99.90;;;;;;5033781;28;20455;-79
2023/09/17 08:08:52;;;;;;;1.40;1.10;;;22.80;99.90;;;;;;5033998;28;20207;-79
2023/09/17 08:11:19;;;;;;;2.27;1.10;;;22.90;99.90;;;;;;5034082;28;20270;-79
2023/09/17 08:13:48;;;;;;;1.17;1.00;;;22.80;99.90;;;;;;5034331;28;20298;-79
2023/09/17 08:16:14;;;;;;;1.70;1.60;;;22.80;99.90;;;;;;5033944;28;20310;-79
2023/09/17 08:18:42;;;;;;;1.40;0.97;;;22.80;99.90;;;;;;5033949;28;20442;-79
2023/09/17 08:21:10;;;;;;;1.47;1.37;;;22.80;99.90;;;;;;5033862;28;20239;-79
2023/09/17 08:23:37;;;;;;;1.63;1.40;;;22.80;99.90;;;;;;5033837;28;20209;-79
2023/09/17 08:26:04;;;;;;;1.75;1.27;;;22.90;99.90;;;;;;5033426;28;20243;-79
2023/09/17 08:28:31;;;;;;;1.63;1.53;;;22.90;99.90;;;;;;5033751;28;20207;-79
2023/09/17 08:30:58;;;;;;;2.93;1.47;;;22.80;99.90;;;;;;5033651;28;20220;-79
2023/09/17 08:33:24;;;;;;;2.30;2.03;;;22.90;99.90;;;;;;5033521;28;20567;-79
2023/09/17 08:35:51;;;;;;;1.57;1.30;;;22.80;99.90;;;;;;5033253;28;20716;-79
2023/09/17 08:38:19;;;;;;;1.50;1.40;;;22.80;99.90;;;;;;5033592;28;20207;-79
2023/09/17 08:40:47;;;;;;;2.08;1.45;;;22.80;99.90;;;;;;5033547;28;20200;-79
2023/09/17 08:43:15;;;;;;;1.23;1.00;;;22.80;99.90;;;;;;5033328;28;20717;-79
2023/09/17 08:45:42;;;;;;;1.13;1.02;;;22.80;99.90;;;;;;5033212;28;20254;-80
2023/09/17 08:48:09;;;;;;;1.48;1.33;;;22.90;99.90;;;;;;5032900;28;20184;-79
2023/09/17 08:50:37;;;;;;;1.73;1.23;;;23.00;99.90;;;;;;5032805;28;20623;-79
2023/09/17 08:53:07;;;;;;;1.80;1.63;;;23.00;99.90;;;;;;5033486;28;20306;-79
2023/09/17 08:55:36;;;;;;;1.57;1.47;;;23.10;99.90;;;;;;5033522;28;20223;-79
2023/09/17 08:58:11;;;;;;;1.50;1.20;;;23.10;99.90;;;;;;5033322;28;20211;-80
2023/09/17 09:00:41;;;;;;;3.45;1.80;;;23.60;99.90;;;;;;5033299;28;20191;-79
2023/09/17 09:03:08;;;;;;;1.60;1.50;;;24.00;99.90;;;;;;5033039;28;20557;-79
2023/09/17 09:05:37;;;;;;;1.05;0.88;;;24.60;99.90;;;;;;5032727;28;20720;-80
2023/09/17 09:08:05;;;;;;;1.23;1.13;;;25.10;99.90;;;;;;5033109;28;20253;-79
2023/09/17 09:10:32;;;;;;;1.40;1.30;;;25.30;99.90;;;;;;5033066;28;20227;-81
2023/09/17 09:13:00;;;;;;;1.10;1.00;;;25.50;99.90;;;;;;5032904;28;20246;-81
2023/09/17 09:15:28;;;;;;;2.00;1.40;;;25.50;99.90;;;;;;5033124;28;20234;-82
2023/09/17 09:17:54;;;;;;;2.75;1.30;;;25.60;99.90;;;;;;5032805;28;20199;-81
2023/09/17 09:20:22;;;;;;;0.88;0.77;;;25.70;99.90;;;;;;5033337;28;20664;-81
2023/09/17 09:22:49;;;;;;;1.10;1.10;;;25.70;99.90;;;;;;5032684;28;20676;-81
2023/09/17 09:25:18;;;;;;;3.00;1.27;;;25.70;99.90;;;;;;5033072;28;20215;-82
2023/09/17 09:27:45;;;;;;;2.05;1.00;;;25.80;99.90;;;;;;5032098;28;20322;-82
2023/09/17 09:30:15;;;;;;;1.15;1.02;;;25.80;99.90;;;;;;5032511;28;20728;-82
2023/09/17 09:32:43;;;;;;;1.98;1.02;;;25.80;99.90;;;;;;5032523;28;20207;-82
2023/09/17 09:35:10;;;;;;;1.80;1.30;;;26.00;99.90;;;;;;5032501;28;20770;-81
2023/09/17 09:37:38;;;;;;;0.77;0.77;;;26.20;99.90;;;;;;5032882;28;20207;-82
2023/09/17 09:40:06;;;;;;;5.75;0.90;;;26.30;99.90;;;;;;5032405;28;20199;-82
2023/09/17 09:42:33;;;;;;;1.80;1.58;;;26.20;99.90;;;;;;5032801;28;20294;-82
2023/09/17 09:44:59;;;;;;;1.02;0.93;;;26.30;99.90;;;;;;5032581;28;20569;-82
2023/09/17 09:47:27;;;;;;;1.63;1.10;;;26.40;99.90;;;;;;5032522;28;20684;-82
2023/09/17 09:49:54;;;;;;;0.65;0.65;;;26.50;99.90;;;;;;5032501;28;20208;-82
2023/09/17 09:52:22;;;;;;;3.00;1.10;;;26.50;99.90;;;;;;5032481;28;20216;-82
2023/09/17 09:54:49;;;;;;;1.80;1.00;;;26.60;99.90;;;;;;5032601;28;20217;-82
2023/09/17 09:57:17;;;;;;;2.00;0.93;;;26.80;99.90;;;;;;5032367;28;20199;-82
2023/09/17 09:59:46;;;;;;;0.70;0.70;;;26.70;99.90;;;;;;5032708;28;20566;-82
2023/09/17 10:02:15;;;;;;;0.68;0.68;;;26.70;99.90;;;;;;5036430;28;20246;-82
2023/09/17 10:04:44;;;;;;;0.60;0.60;;;27.00;99.90;;;;;;5036447;28;20203;-82
2023/09/17 10:07:11;;;;;;;0.95;0.93;;;27.20;99.90;;;;;;5036322;28;20203;-82
2023/09/17 10:09:38;;;;;;;0.88;0.82;;;27.40;99.90;;;;;;5036151;28;20203;-82
2023/09/17 10:12:06;;;;;;;0.95;0.90;;;27.30;99.90;;;;;;5035849;28;20210;-82
2023/09/17 10:14:37;;;;;;;2.17;0.80;;;27.20;99.90;;;;;;5036020;28;20215;-82
2023/09/17 10:17:06;;;;;;;0.82;0.80;;;27.20;99.90;;;;;;5036170;28;20223;-82
2023/09/17 10:19:35;;;;;;;2.45;1.23;;;27.30;99.90;;;;;;5036001;28;20226;-81
2023/09/17 10:22:06;;;;;;;0.68;0.63;;;27.20;99.90;;;;;;5035910;28;20211;-81
2023/09/17 10:24:36;;;;;;;1.02;0.73;;;27.20;99.90;;;;;;5035967;28;20636;-80
2023/09/17 10:27:05;;;;;;;1.00;0.90;;;27.10;99.90;;;;;;5035386;28;20716;-80
2023/09/17 10:29:33;;;;;;;2.63;1.00;;;27.10;99.90;;;;;;5035764;28;20578;-81
2023/09/17 10:32:02;;;;;;;0.80;0.80;;;27.30;99.90;;;;;;5035827;28;20209;-80
2023/09/17 10:34:31;;;;;;;0.82;0.82;;;27.40;99.90;;;;;;5035511;28;20196;-80
2023/09/17 10:36:59;;;;;;;1.25;0.70;;;27.50;99.90;;;;;;5035526;28;20223;-81
2023/09/17 10:39:29;;;;;;;0.98;0.95;;;27.60;99.90;;;;;;5035373;28;20202;-80
2023/09/17 10:41:56;;;;;;;0.90;0.77;;;27.70;99.90;;;;;;5035371;28;20199;-80
2023/09/17 10:44:25;;;;;;;1.40;0.77;;;27.80;99.90;;;;;;5035313;28;20199;-80
2023/09/17 10:46:53;;;;;;;3.30;0.95;;;27.90;99.90;;;;;;5035308;28;20223;-80
2023/09/17 10:49:21;;;;;;;0.90;0.90;;;27.90;99.90;;;;;;5035465;28;20200;-80
2023/09/17 10:51:51;;;;;;;0.80;0.80;;;28.00;99.90;;;;;;5035381;28;20223;-80
2023/09/17 10:54:18;;;;;;;0.98;0.98;;;27.90;99.90;;;;;;5035419;28;20565;-80
2023/09/17 10:56:46;;;;;;;1.30;1.20;;;28.00;99.90;;;;;;5034929;28;20592;-80
2023/09/17 10:59:14;;;;;;;0.82;0.70;;;28.00;99.90;;;;;;5035323;28;20207;-80
2023/09/17 11:01:44;;;;;;;1.35;0.63;;;28.10;99.90;;;;;;5035237;28;20203;-81
2023/09/17 11:04:16;;;;;;;0.93;0.65;;;28.00;99.90;;;;;;5034975;28;20561;-80
2023/09/17 11:06:45;;;;;;;0.90;0.68;;;28.00;99.90;;;;;;5035164;28;20350;-80
2023/09/17 11:09:13;;;;;;;0.80;0.77;;;28.00;99.90;;;;;;5035154;28;20295;-80
2023/09/17 11:11:41;;;;;;;0.80;0.70;;;27.90;99.90;;;;;;5033824;28;20219;-80
2023/09/17 11:14:13;;;;;;;2.95;0.80;;;27.90;99.90;;;;;;5035075;28;20204;-80
2023/09/17 11:16:40;;;;;;;2.35;0.80;;;28.00;99.90;;;;;;5034800;28;20238;-80
2023/09/17 11:19:10;;;;;;;0.73;0.73;;;28.00;99.90;;;;;;5035009;28;20203;-80
2023/09/17 11:21:37;;;;;;;1.00;0.85;;;27.90;99.90;;;;;;5034593;28;20668;-80
2023/09/17 11:24:06;;;;;;;1.00;0.60;;;27.80;99.90;;;;;;5034529;28;20680;-80
2023/09/17 11:26:34;;;;;;;0.75;0.70;;;27.90;99.90;;;;;;5034426;28;20242;-80
2023/09/17 11:29:05;;;;;;;0.70;0.70;;;28.00;99.90;;;;;;5034727;28;20611;-80
2023/09/17 11:31:35;;;;;;;0.98;0.80;;;27.90;99.90;;;;;;5034224;28;20286;-80
2023/09/17 11:34:03;;;;;;;1.02;1.00;;;27.90;99.90;;;;;;5034648;28;20195;-80
2023/09/17 11:36:32;;;;;;;1.00;0.70;;;27.80;99.90;;;;;;5034625;28;20219;-80
2023/09/17 11:39:03;;;;;;;1.17;0.63;;;27.80;99.90;;;;;;5034472;28;20211;-79
2023/09/17 11:41:31;;;;;;;0.63;0.60;;;27.80;99.90;;;;;;5034342;28;20183;-80
2023/09/17 11:43:58;;;;;;;0.60;0.60;;;27.70;99.90;;;;;;5034270;28;20199;-83
2023/09/17 11:46:25;;;;;;;0.85;0.85;;;27.80;99.90;;;;;;5034181;28;20223;-83
2023/09/17 11:48:54;;;;;;;0.77;0.70;;;27.80;99.90;;;;;;5034244;28;20215;-83
2023/09/17 11:51:25;;;;;;;0.68;0.68;;;27.80;99.90;;;;;;5034112;28;20230;-83
2023/09/17 11:53:56;;;;;;;1.00;0.60;;;27.80;99.90;;;;;;5034086;28;20237;-83
2023/09/17 11:56:24;;;;;;;2.22;0.88;;;27.80;99.90;;;;;;5034324;28;20588;-83
2023/09/17 11:59:05;;;;;;;0.85;0.85;;;27.80;99.90;;;;;;5033975;28;20678;-83
2023/09/17 12:01:37;;;;;;;2.40;0.80;;;27.80;99.90;;;;;;5034293;28;20188;-83
2023/09/17 12:04:10;;;;;;;0.60;0.60;;;28.00;99.90;;;;;;5033907;28;20664;-83
2023/09/17 12:06:39;;;;;;;0.82;0.75;;;27.90;99.90;;;;;;5034220;28;20224;-83
2023/09/17 12:09:15;;;;;;;0.80;0.70;;;27.90;99.90;;;;;;5034416;28;20207;-83
2023/09/17 12:11:43;;;;;;;1.45;0.80;;;27.80;99.90;;;;;;5034035;28;20217;-83
2023/09/17 12:14:11;;;;;;;1.83;0.90;;;27.70;99.90;;;;;;5034020;28;20214;-83
2023/09/17 12:16:38;;;;;;;0.60;0.60;;;27.70;99.90;;;;;;5033718;28;20224;-83
2023/09/17 12:19:05;;;;;;;1.05;0.70;;;27.60;99.90;;;;;;5033684;28;20204;-83
2023/09/17 12:21:39;;;;;;;2.40;0.90;;;27.70;99.90;;;;;;5034035;28;20211;-82
2023/09/17 12:24:08;;;;;;;1.35;0.82;;;27.50;99.90;;;;;;5033380;28;20662;-83
2023/09/17 12:26:46;;;;;;;0.63;0.63;;;27.60;99.90;;;;;;5033380;28;20266;-83
2023/09/17 12:29:13;;;;;;;0.70;0.70;;;27.60;99.90;;;;;;5034348;28;20191;-83
2023/09/17 12:31:40;;;;;;;0.80;0.70;;;27.60;99.90;;;;;;5033672;28;20219;-82
2023/09/17 12:34:07;;;;;;;0.88;0.60;;;27.60;99.90;;;;;;5033714;28;20282;-82
2023/09/17 12:36:36;;;;;;;0.75;0.60;;;27.60;99.90;;;;;;5033624;28;20223;-83
2023/09/17 12:39:03;;;;;;;0.73;0.60;;;27.60;99.90;;;;;;5033326;28;20203;-83
2023/09/17 12:41:29;;;;;;;0.80;0.70;;;27.60;99.90;;;;;;5033631;28;20211;-83
2023/09/17 12:43:56;;;;;;;2.17;1.10;;;27.70;99.90;;;;;;5033540;28;20226;-83
2023/09/17 12:46:23;;;;;;;1.80;0.98;;;27.70;99.90;;;;;;5033449;28;20223;-83
2023/09/17 12:48:51;;;;;;;1.08;0.85;;;27.60;99.90;;;;;;5033478;28;20211;-83
2023/09/17 12:51:18;;;;;;;3.05;0.63;;;27.60;99.90;;;;;;5033424;28;20215;-83